sensor_id;sensor_type;location;lat;lon;timestamp;P1;durP1;ratioP1;P2;durP2;ratioP2
52025;SDS011;38041;40.058;18.328;2022-11-20T00:01:36;73.43;;;9.20;;
52025;SDS011;38041;40.058;18.328;2022-11-20T00:04:04;60.58;;;7.82;;
52025;SDS011;38041;40.058;18.328;2022-11-20T00:06:31;49.47;;;8.50;;
52025;SDS011;38041;40.058;18.328;2022-11-20T00:08:59;59.10;;;7.80;;
52025;SDS011;38041;40.058;18.328;2022-11-20T00:11:28;52.92;;;8.75;;
52025;SDS011;38041;40.058;18.328;2022-11-20T00:13:57;48.78;;;7.45;;
52025;SDS011;38041;40.058;18.328;2022-11-20T00:16:25;53.95;;;8.05;;
52025;SDS011;38041;40.058;18.328;2022-11-20T00:18:53;65.88;;;8.77;;
52025;SDS011;38041;40.058;18.328;2022-11-20T00:21:23;60.72;;;9.98;;
52025;SDS011;38041;40.058;18.328;2022-11-20T00:23:51;48.00;;;8.13;;
52025;SDS011;38041;40.058;18.328;2022-11-20T00:26:21;68.95;;;8.50;;
52025;SDS011;38041;40.058;18.328;2022-11-20T00:28:50;44.00;;;5.97;;
52025;SDS011;38041;40.058;18.328;2022-11-20T00:31:18;59.65;;;8.70;;
52025;SDS011;38041;40.058;18.328;2022-11-20T00:33:46;56.45;;;8.65;;
52025;SDS011;38041;40.058;18.328;2022-11-20T00:36:15;68.55;;;9.40;;
52025;SDS011;38041;40.058;18.328;2022-11-20T00:38:43;77.00;;;10.98;;
52025;SDS011;38041;40.058;18.328;2022-11-20T00:41:12;59.58;;;9.45;;
52025;SDS011;38041;40.058;18.328;2022-11-20T00:43:40;51.92;;;6.75;;
52025;SDS011;38041;40.058;18.328;2022-11-20T00:46:09;40.13;;;5.45;;
52025;SDS011;38041;40.058;18.328;2022-11-20T00:48:37;44.88;;;6.00;;
52025;SDS011;38041;40.058;18.328;2022-11-20T00:51:05;55.58;;;7.72;;
52025;SDS011;38041;40.058;18.328;2022-11-20T00:53:32;60.00;;;7.78;;
52025;SDS011;38041;40.058;18.328;2022-11-20T00:56:01;49.45;;;8.45;;
52025;SDS011;38041;40.058;18.328;2022-11-20T00:58:30;58.08;;;5.75;;
52025;SDS011;38041;40.058;18.328;2022-11-20T01:01:01;41.28;;;6.32;;
52025;SDS011;38041;40.058;18.328;2022-11-20T01:03:36;66.50;;;7.90;;
52025;SDS011;38041;40.058;18.328;2022-11-20T01:06:05;44.10;;;5.55;;
52025;SDS011;38041;40.058;18.328;2022-11-20T01:08:34;54.22;;;7.57;;
52025;SDS011;38041;40.058;18.328;2022-11-20T01:11:06;61.80;;;8.93;;
52025;SDS011;38041;40.058;18.328;2022-11-20T01:13:34;59.63;;;7.15;;
52025;SDS011;38041;40.058;18.328;2022-11-20T01:18:52;48.40;;;7.03;;
52025;SDS011;38041;40.058;18.328;2022-11-20T01:21:21;63.95;;;8.07;;
52025;SDS011;38041;40.058;18.328;2022-11-20T01:23:49;57.88;;;10.00;;
52025;SDS011;38041;40.058;18.328;2022-11-20T01:37:11;66.38;;;7.63;;
52025;SDS011;38041;40.058;18.328;2022-11-20T01:39:39;52.47;;;7.75;;
52025;SDS011;38041;40.058;18.328;2022-11-20T01:42:07;58.55;;;6.90;;
52025;SDS011;38041;40.058;18.328;2022-11-20T01:47:31;53.50;;;7.78;;
52025;SDS011;38041;40.058;18.328;2022-11-20T01:50:03;47.58;;;7.32;;
52025;SDS011;38041;40.058;18.328;2022-11-20T01:52:36;64.88;;;8.77;;
52025;SDS011;38041;40.058;18.328;2022-11-20T01:55:07;60.28;;;8.43;;
52025;SDS011;38041;40.058;18.328;2022-11-20T01:57:35;50.53;;;7.35;;
52025;SDS011;38041;40.058;18.328;2022-11-20T02:00:06;57.75;;;10.32;;
52025;SDS011;38041;40.058;18.328;2022-11-20T02:02:44;62.55;;;8.13;;
52025;SDS011;38041;40.058;18.328;2022-11-20T02:05:27;52.42;;;7.13;;
52025;SDS011;38041;40.058;18.328;2022-11-20T02:07:56;64.47;;;7.43;;
52025;SDS011;38041;40.058;18.328;2022-11-20T02:10:24;56.50;;;7.32;;
52025;SDS011;38041;40.058;18.328;2022-11-20T02:12:53;51.40;;;7.78;;
52025;SDS011;38041;40.058;18.328;2022-11-20T02:15:39;46.85;;;7.15;;
52025;SDS011;38041;40.058;18.328;2022-11-20T02:18:07;65.88;;;7.07;;
52025;SDS011;38041;40.058;18.328;2022-11-20T02:20:36;60.80;;;8.35;;
52025;SDS011;38041;40.058;18.328;2022-11-20T02:25:35;56.95;;;8.43;;
52025;SDS011;38041;40.058;18.328;2022-11-20T02:28:04;64.60;;;9.55;;
52025;SDS011;38041;40.058;18.328;2022-11-20T02:30:32;64.15;;;9.07;;
52025;SDS011;38041;40.058;18.328;2022-11-20T02:32:59;54.08;;;7.25;;
52025;SDS011;38041;40.058;18.328;2022-11-20T02:37:56;51.22;;;7.50;;
52025;SDS011;38041;40.058;18.328;2022-11-20T02:40:24;50.95;;;7.70;;
52025;SDS011;38041;40.058;18.328;2022-11-20T02:42:52;65.03;;;7.80;;
52025;SDS011;38041;40.058;18.328;2022-11-20T02:45:20;62.00;;;11.05;;
52025;SDS011;38041;40.058;18.328;2022-11-20T02:47:49;68.30;;;8.30;;
52025;SDS011;38041;40.058;18.328;2022-11-20T02:50:17;59.20;;;8.55;;
52025;SDS011;38041;40.058;18.328;2022-11-20T02:52:45;73.20;;;8.95;;
52025;SDS011;38041;40.058;18.328;2022-11-20T02:55:12;63.22;;;7.95;;
52025;SDS011;38041;40.058;18.328;2022-11-20T02:57:40;55.83;;;9.95;;
52025;SDS011;38041;40.058;18.328;2022-11-20T03:00:08;81.97;;;9.07;;
52025;SDS011;38041;40.058;18.328;2022-11-20T03:02:36;56.55;;;9.07;;
52025;SDS011;38041;40.058;18.328;2022-11-20T03:05:03;69.70;;;8.65;;
52025;SDS011;38041;40.058;18.328;2022-11-20T03:07:31;62.85;;;8.52;;
52025;SDS011;38041;40.058;18.328;2022-11-20T03:09:59;76.13;;;9.00;;
52025;SDS011;38041;40.058;18.328;2022-11-20T03:12:27;72.75;;;10.30;;
52025;SDS011;38041;40.058;18.328;2022-11-20T03:14:54;66.50;;;10.63;;
52025;SDS011;38041;40.058;18.328;2022-11-20T03:17:22;55.72;;;8.85;;
52025;SDS011;38041;40.058;18.328;2022-11-20T03:19:50;66.07;;;9.25;;
52025;SDS011;38041;40.058;18.328;2022-11-20T03:22:17;58.15;;;8.30;;
52025;SDS011;38041;40.058;18.328;2022-11-20T03:24:45;60.30;;;10.13;;
52025;SDS011;38041;40.058;18.328;2022-11-20T03:27:13;59.53;;;9.35;;
52025;SDS011;38041;40.058;18.328;2022-11-20T03:29:40;49.05;;;7.35;;
52025;SDS011;38041;40.058;18.328;2022-11-20T03:32:08;11.52;;;1.50;;
52025;SDS011;38041;40.058;18.328;2022-11-20T03:34:36;3.88;;;0.77;;
52025;SDS011;38041;40.058;18.328;2022-11-20T03:37:03;10.43;;;0.90;;
52025;SDS011;38041;40.058;18.328;2022-11-20T03:39:31;10.00;;;0.67;;
52025;SDS011;38041;40.058;18.328;2022-11-20T03:41:59;10.57;;;1.30;;
52025;SDS011;38041;40.058;18.328;2022-11-20T03:44:27;15.70;;;1.00;;
52025;SDS011;38041;40.058;18.328;2022-11-20T03:46:54;24.13;;;1.33;;
52025;SDS011;38041;40.058;18.328;2022-11-20T03:49:22;11.70;;;0.70;;
52025;SDS011;38041;40.058;18.328;2022-11-20T03:51:50;12.27;;;0.57;;
52025;SDS011;38041;40.058;18.328;2022-11-20T03:54:17;12.93;;;0.50;;
52025;SDS011;38041;40.058;18.328;2022-11-20T03:56:45;13.23;;;1.73;;
52025;SDS011;38041;40.058;18.328;2022-11-20T03:59:13;10.87;;;1.93;;
52025;SDS011;38041;40.058;18.328;2022-11-20T04:01:40;11.70;;;1.27;;
52025;SDS011;38041;40.058;18.328;2022-11-20T04:04:09;23.97;;;2.80;;
52025;SDS011;38041;40.058;18.328;2022-11-20T04:06:37;54.53;;;7.67;;
52025;SDS011;38041;40.058;18.328;2022-11-20T04:09:05;49.40;;;6.93;;
52025;SDS011;38041;40.058;18.328;2022-11-20T04:11:34;65.73;;;9.37;;
52025;SDS011;38041;40.058;18.328;2022-11-20T04:14:11;57.27;;;7.47;;
52025;SDS011;38041;40.058;18.328;2022-11-20T04:16:39;61.60;;;9.13;;
52025;SDS011;38041;40.058;18.328;2022-11-20T04:19:09;62.08;;;8.38;;
52025;SDS011;38041;40.058;18.328;2022-11-20T04:21:37;64.82;;;8.57;;
52025;SDS011;38041;40.058;18.328;2022-11-20T04:24:05;65.10;;;8.98;;
52025;SDS011;38041;40.058;18.328;2022-11-20T04:26:33;66.18;;;7.68;;
52025;SDS011;38041;40.058;18.328;2022-11-20T04:29:01;68.68;;;10.82;;
52025;SDS011;38041;40.058;18.328;2022-11-20T04:31:30;71.10;;;8.88;;
52025;SDS011;38041;40.058;18.328;2022-11-20T04:34:01;57.65;;;7.57;;
52025;SDS011;38041;40.058;18.328;2022-11-20T04:36:30;58.63;;;10.05;;
52025;SDS011;38041;40.058;18.328;2022-11-20T04:38:58;44.35;;;7.40;;
52025;SDS011;38041;40.058;18.328;2022-11-20T04:41:27;70.13;;;8.27;;
52025;SDS011;38041;40.058;18.328;2022-11-20T04:43:56;68.72;;;9.35;;
52025;SDS011;38041;40.058;18.328;2022-11-20T04:46:26;77.47;;;9.63;;
52025;SDS011;38041;40.058;18.328;2022-11-20T04:48:54;51.22;;;7.93;;
52025;SDS011;38041;40.058;18.328;2022-11-20T04:51:21;62.28;;;9.18;;
52025;SDS011;38041;40.058;18.328;2022-11-20T04:53:49;66.47;;;9.43;;
52025;SDS011;38041;40.058;18.328;2022-11-20T04:56:17;75.05;;;10.65;;
52025;SDS011;38041;40.058;18.328;2022-11-20T04:58:44;77.35;;;10.25;;
52025;SDS011;38041;40.058;18.328;2022-11-20T05:01:13;75.78;;;8.75;;
52025;SDS011;38041;40.058;18.328;2022-11-20T05:03:41;66.88;;;10.25;;
52025;SDS011;38041;40.058;18.328;2022-11-20T05:06:11;81.45;;;11.43;;
52025;SDS011;38041;40.058;18.328;2022-11-20T05:08:39;65.78;;;9.80;;
52025;SDS011;38041;40.058;18.328;2022-11-20T05:11:11;59.60;;;7.35;;
52025;SDS011;38041;40.058;18.328;2022-11-20T05:13:40;60.00;;;8.98;;
52025;SDS011;38041;40.058;18.328;2022-11-20T05:16:12;57.97;;;8.57;;
52025;SDS011;38041;40.058;18.328;2022-11-20T05:18:40;42.53;;;6.40;;
52025;SDS011;38041;40.058;18.328;2022-11-20T05:21:08;41.40;;;7.03;;
52025;SDS011;38041;40.058;18.328;2022-11-20T05:23:37;54.03;;;6.95;;
52025;SDS011;38041;40.058;18.328;2022-11-20T05:26:05;37.15;;;7.47;;
52025;SDS011;38041;40.058;18.328;2022-11-20T05:28:33;46.67;;;6.90;;
52025;SDS011;38041;40.058;18.328;2022-11-20T05:31:05;44.72;;;5.22;;
52025;SDS011;38041;40.058;18.328;2022-11-20T05:33:34;36.53;;;5.93;;
52025;SDS011;38041;40.058;18.328;2022-11-20T05:36:03;46.47;;;6.73;;
52025;SDS011;38041;40.058;18.328;2022-11-20T05:38:31;55.63;;;7.75;;
52025;SDS011;38041;40.058;18.328;2022-11-20T05:41:11;58.83;;;8.10;;
52025;SDS011;38041;40.058;18.328;2022-11-20T05:43:40;44.77;;;7.50;;
52025;SDS011;38041;40.058;18.328;2022-11-20T05:46:09;53.57;;;8.57;;
52025;SDS011;38041;40.058;18.328;2022-11-20T05:48:37;52.58;;;7.25;;
52025;SDS011;38041;40.058;18.328;2022-11-20T05:51:06;57.40;;;8.98;;
52025;SDS011;38041;40.058;18.328;2022-11-20T05:53:35;61.50;;;7.88;;
52025;SDS011;38041;40.058;18.328;2022-11-20T05:56:06;61.27;;;10.27;;
52025;SDS011;38041;40.058;18.328;2022-11-20T05:58:34;64.47;;;8.80;;
52025;SDS011;38041;40.058;18.328;2022-11-20T06:03:39;61.60;;;8.88;;
52025;SDS011;38041;40.058;18.328;2022-11-20T06:06:09;61.37;;;8.23;;
52025;SDS011;38041;40.058;18.328;2022-11-20T06:08:36;49.03;;;9.23;;
52025;SDS011;38041;40.058;18.328;2022-11-20T06:11:05;49.90;;;6.43;;
52025;SDS011;38041;40.058;18.328;2022-11-20T06:13:33;59.37;;;8.40;;
52025;SDS011;38041;40.058;18.328;2022-11-20T06:16:02;64.50;;;8.97;;
52025;SDS011;38041;40.058;18.328;2022-11-20T06:18:30;57.50;;;7.78;;
52025;SDS011;38041;40.058;18.328;2022-11-20T06:21:02;58.05;;;8.85;;
52025;SDS011;38041;40.058;18.328;2022-11-20T06:23:30;61.22;;;8.38;;
52025;SDS011;38041;40.058;18.328;2022-11-20T06:26:05;51.33;;;5.87;;
52025;SDS011;38041;40.058;18.328;2022-11-20T06:28:33;45.70;;;6.82;;
52025;SDS011;38041;40.058;18.328;2022-11-20T06:31:02;53.27;;;6.90;;
52025;SDS011;38041;40.058;18.328;2022-11-20T06:33:30;37.03;;;6.73;;
52025;SDS011;38041;40.058;18.328;2022-11-20T06:35:58;41.73;;;4.93;;
52025;SDS011;38041;40.058;18.328;2022-11-20T06:38:27;40.53;;;8.20;;
52025;SDS011;38041;40.058;18.328;2022-11-20T06:40:55;31.90;;;5.27;;
52025;SDS011;38041;40.058;18.328;2022-11-20T06:43:23;28.77;;;4.93;;
52025;SDS011;38041;40.058;18.328;2022-11-20T06:45:51;36.87;;;6.53;;
52025;SDS011;38041;40.058;18.328;2022-11-20T06:48:19;43.63;;;4.68;;
52025;SDS011;38041;40.058;18.328;2022-11-20T06:50:47;31.50;;;5.07;;
52025;SDS011;38041;40.058;18.328;2022-11-20T06:53:15;32.35;;;5.25;;
52025;SDS011;38041;40.058;18.328;2022-11-20T06:55:46;50.20;;;7.40;;
52025;SDS011;38041;40.058;18.328;2022-11-20T06:58:14;29.97;;;5.93;;
52025;SDS011;38041;40.058;18.328;2022-11-20T07:00:42;40.78;;;6.68;;
52025;SDS011;38041;40.058;18.328;2022-11-20T07:03:11;37.03;;;5.20;;
52025;SDS011;38041;40.058;18.328;2022-11-20T07:05:39;34.67;;;4.68;;
52025;SDS011;38041;40.058;18.328;2022-11-20T07:08:07;33.97;;;5.97;;
52025;SDS011;38041;40.058;18.328;2022-11-20T07:10:35;35.45;;;7.00;;
52025;SDS011;38041;40.058;18.328;2022-11-20T07:13:03;41.65;;;8.32;;
52025;SDS011;38041;40.058;18.328;2022-11-20T07:15:30;28.58;;;5.15;;
52025;SDS011;38041;40.058;18.328;2022-11-20T07:17:58;46.83;;;9.15;;
52025;SDS011;38041;40.058;18.328;2022-11-20T07:20:26;36.85;;;6.20;;
52025;SDS011;38041;40.058;18.328;2022-11-20T07:22:55;27.67;;;5.47;;
52025;SDS011;38041;40.058;18.328;2022-11-20T07:25:23;39.92;;;8.60;;
52025;SDS011;38041;40.058;18.328;2022-11-20T07:27:51;38.00;;;7.40;;
52025;SDS011;38041;40.058;18.328;2022-11-20T07:30:18;44.75;;;9.63;;
52025;SDS011;38041;40.058;18.328;2022-11-20T07:32:47;36.47;;;7.85;;
52025;SDS011;38041;40.058;18.328;2022-11-20T07:35:18;21.45;;;5.63;;
52025;SDS011;38041;40.058;18.328;2022-11-20T07:37:46;25.30;;;6.10;;
52025;SDS011;38041;40.058;18.328;2022-11-20T07:40:18;31.73;;;8.18;;
52025;SDS011;38041;40.058;18.328;2022-11-20T07:42:53;32.97;;;6.18;;
52025;SDS011;38041;40.058;18.328;2022-11-20T07:45:22;34.00;;;6.57;;
52025;SDS011;38041;40.058;18.328;2022-11-20T07:47:50;49.38;;;10.30;;
52025;SDS011;38041;40.058;18.328;2022-11-20T07:50:18;37.38;;;8.98;;
52025;SDS011;38041;40.058;18.328;2022-11-20T07:52:46;48.53;;;13.88;;
52025;SDS011;38041;40.058;18.328;2022-11-20T07:55:14;47.15;;;17.85;;
52025;SDS011;38041;40.058;18.328;2022-11-20T07:57:42;58.65;;;16.90;;
52025;SDS011;38041;40.058;18.328;2022-11-20T08:00:10;56.15;;;18.77;;
52025;SDS011;38041;40.058;18.328;2022-11-20T08:02:40;41.50;;;9.85;;
52025;SDS011;38041;40.058;18.328;2022-11-20T08:05:09;40.22;;;13.25;;
52025;SDS011;38041;40.058;18.328;2022-11-20T08:07:37;31.38;;;6.20;;
52025;SDS011;38041;40.058;18.328;2022-11-20T08:10:06;40.65;;;7.32;;
52025;SDS011;38041;40.058;18.328;2022-11-20T08:12:34;36.95;;;9.68;;
52025;SDS011;38041;40.058;18.328;2022-11-20T08:15:20;44.13;;;6.68;;
52025;SDS011;38041;40.058;18.328;2022-11-20T08:17:48;59.03;;;21.02;;
52025;SDS011;38041;40.058;18.328;2022-11-20T08:20:27;43.40;;;11.50;;
52025;SDS011;38041;40.058;18.328;2022-11-20T08:23:02;42.22;;;10.02;;
52025;SDS011;38041;40.058;18.328;2022-11-20T08:25:30;29.75;;;7.82;;
52025;SDS011;38041;40.058;18.328;2022-11-20T08:27:58;23.30;;;5.47;;
52025;SDS011;38041;40.058;18.328;2022-11-20T08:30:28;18.90;;;7.75;;
52025;SDS011;38041;40.058;18.328;2022-11-20T08:32:59;9.85;;;2.10;;
52025;SDS011;38041;40.058;18.328;2022-11-20T08:35:27;21.08;;;6.75;;
52025;SDS011;38041;40.058;18.328;2022-11-20T08:37:55;17.30;;;4.95;;
52025;SDS011;38041;40.058;18.328;2022-11-20T08:40:23;19.65;;;2.75;;
52025;SDS011;38041;40.058;18.328;2022-11-20T08:42:50;13.00;;;2.17;;
52025;SDS011;38041;40.058;18.328;2022-11-20T08:45:18;11.85;;;2.35;;
52025;SDS011;38041;40.058;18.328;2022-11-20T08:47:46;14.45;;;2.25;;
52025;SDS011;38041;40.058;18.328;2022-11-20T08:50:14;17.00;;;2.20;;
52025;SDS011;38041;40.058;18.328;2022-11-20T08:52:42;20.52;;;2.50;;
52025;SDS011;38041;40.058;18.328;2022-11-20T08:55:10;12.30;;;2.03;;
52025;SDS011;38041;40.058;18.328;2022-11-20T08:57:38;17.98;;;3.55;;
52025;SDS011;38041;40.058;18.328;2022-11-20T09:00:06;24.90;;;2.22;;
52025;SDS011;38041;40.058;18.328;2022-11-20T09:02:35;17.58;;;1.75;;
52025;SDS011;38041;40.058;18.328;2022-11-20T09:05:03;11.10;;;3.20;;
52025;SDS011;38041;40.058;18.328;2022-11-20T09:07:30;16.48;;;3.47;;
52025;SDS011;38041;40.058;18.328;2022-11-20T09:09:58;23.35;;;8.15;;
52025;SDS011;38041;40.058;18.328;2022-11-20T09:12:42;27.90;;;4.85;;
52025;SDS011;38041;40.058;18.328;2022-11-20T09:15:10;33.17;;;7.85;;
52025;SDS011;38041;40.058;18.328;2022-11-20T09:17:38;23.73;;;5.38;;
52025;SDS011;38041;40.058;18.328;2022-11-20T09:20:06;61.03;;;36.83;;
52025;SDS011;38041;40.058;18.328;2022-11-20T09:22:34;26.75;;;4.63;;
52025;SDS011;38041;40.058;18.328;2022-11-20T09:25:01;28.58;;;9.30;;
52025;SDS011;38041;40.058;18.328;2022-11-20T09:27:29;18.52;;;3.28;;
52025;SDS011;38041;40.058;18.328;2022-11-20T09:29:56;22.77;;;6.30;;
52025;SDS011;38041;40.058;18.328;2022-11-20T09:32:24;114.63;;;72.22;;
52025;SDS011;38041;40.058;18.328;2022-11-20T09:34:52;97.30;;;55.75;;
52025;SDS011;38041;40.058;18.328;2022-11-20T09:37:20;29.77;;;7.47;;
52025;SDS011;38041;40.058;18.328;2022-11-20T09:39:47;30.17;;;5.03;;
52025;SDS011;38041;40.058;18.328;2022-11-20T09:42:32;37.60;;;19.48;;
52025;SDS011;38041;40.058;18.328;2022-11-20T09:55:09;10.23;;;2.28;;
52025;SDS011;38041;40.058;18.328;2022-11-20T09:57:39;10.20;;;2.80;;
52025;SDS011;38041;40.058;18.328;2022-11-20T10:00:12;16.20;;;2.50;;
52025;SDS011;38041;40.058;18.328;2022-11-20T10:02:59;9.20;;;2.53;;
52025;SDS011;38041;40.058;18.328;2022-11-20T10:05:35;9.48;;;2.65;;
52025;SDS011;38041;40.058;18.328;2022-11-20T10:10:47;17.88;;;2.58;;
52025;SDS011;38041;40.058;18.328;2022-11-20T10:21:08;6.95;;;1.92;;
52025;SDS011;38041;40.058;18.328;2022-11-20T10:26:17;15.57;;;1.85;;
52025;SDS011;38041;40.058;18.328;2022-11-20T10:29:32;11.50;;;1.50;;
52025;SDS011;38041;40.058;18.328;2022-11-20T10:31:41;9.15;;;1.38;;
52025;SDS011;38041;40.058;18.328;2022-11-20T10:34:18;21.52;;;1.70;;
52025;SDS011;38041;40.058;18.328;2022-11-20T10:36:55;16.80;;;2.15;;
52025;SDS011;38041;40.058;18.328;2022-11-20T10:41:51;18.58;;;2.55;;
52025;SDS011;38041;40.058;18.328;2022-11-20T10:44:21;18.25;;;1.83;;
52025;SDS011;38041;40.058;18.328;2022-11-20T10:47:17;28.33;;;2.90;;
52025;SDS011;38041;40.058;18.328;2022-11-20T10:49:47;23.27;;;2.83;;
52025;SDS011;38041;40.058;18.328;2022-11-20T11:02:22;20.20;;;5.95;;
52025;SDS011;38041;40.058;18.328;2022-11-20T11:04:54;20.90;;;4.30;;
52025;SDS011;38041;40.058;18.328;2022-11-20T11:07:30;38.33;;;6.32;;
52025;SDS011;38041;40.058;18.328;2022-11-20T11:10:01;27.45;;;6.72;;
52025;SDS011;38041;40.058;18.328;2022-11-20T11:12:29;36.40;;;18.00;;
52025;SDS011;38041;40.058;18.328;2022-11-20T11:14:57;31.55;;;13.25;;
52025;SDS011;38041;40.058;18.328;2022-11-20T11:22:34;18.92;;;7.72;;
52025;SDS011;38041;40.058;18.328;2022-11-20T11:25:02;19.08;;;7.90;;
52025;SDS011;38041;40.058;18.328;2022-11-20T11:27:29;50.42;;;31.88;;
52025;SDS011;38041;40.058;18.328;2022-11-20T11:30:11;23.35;;;8.55;;
52025;SDS011;38041;40.058;18.328;2022-11-20T11:32:39;30.08;;;15.18;;
52025;SDS011;38041;40.058;18.328;2022-11-20T11:35:18;33.17;;;17.17;;
52025;SDS011;38041;40.058;18.328;2022-11-20T11:37:46;18.27;;;7.05;;
52025;SDS011;38041;40.058;18.328;2022-11-20T11:40:15;18.40;;;1.92;;
52025;SDS011;38041;40.058;18.328;2022-11-20T11:42:55;16.25;;;6.57;;
52025;SDS011;38041;40.058;18.328;2022-11-20T11:45:24;17.65;;;6.47;;
52025;SDS011;38041;40.058;18.328;2022-11-20T11:47:52;52.17;;;30.20;;
52025;SDS011;38041;40.058;18.328;2022-11-20T11:50:22;55.65;;;28.92;;
52025;SDS011;38041;40.058;18.328;2022-11-20T11:55:41;31.60;;;17.65;;
52025;SDS011;38041;40.058;18.328;2022-11-20T12:01:10;42.85;;;22.67;;
52025;SDS011;38041;40.058;18.328;2022-11-20T12:03:35;20.70;;;8.77;;
52025;SDS011;38041;40.058;18.328;2022-11-20T12:06:25;46.75;;;29.08;;
52025;SDS011;38041;40.058;18.328;2022-11-20T12:08:53;34.92;;;15.23;;
52025;SDS011;38041;40.058;18.328;2022-11-20T12:11:30;27.40;;;13.10;;
52025;SDS011;38041;40.058;18.328;2022-11-20T12:16:28;35.13;;;14.05;;
52025;SDS011;38041;40.058;18.328;2022-11-20T12:18:58;32.65;;;11.93;;
52025;SDS011;38041;40.058;18.328;2022-11-20T12:23:56;20.35;;;5.15;;
52025;SDS011;38041;40.058;18.328;2022-11-20T12:31:43;13.88;;;4.15;;
52025;SDS011;38041;40.058;18.328;2022-11-20T12:34:22;14.13;;;7.22;;
52025;SDS011;38041;40.058;18.328;2022-11-20T12:39:26;12.38;;;3.05;;
52025;SDS011;38041;40.058;18.328;2022-11-20T12:50:22;7.27;;;1.63;;
52025;SDS011;38041;40.058;18.328;2022-11-20T12:52:56;5.27;;;0.87;;
52025;SDS011;38041;40.058;18.328;2022-11-20T12:58:08;12.00;;;4.03;;
52025;SDS011;38041;40.058;18.328;2022-11-20T13:00:39;18.42;;;7.38;;
52025;SDS011;38041;40.058;18.328;2022-11-20T13:03:29;8.57;;;3.30;;
52025;SDS011;38041;40.058;18.328;2022-11-20T13:06:13;11.47;;;4.93;;
52025;SDS011;38041;40.058;18.328;2022-11-20T13:08:45;5.07;;;0.83;;
52025;SDS011;38041;40.058;18.328;2022-11-20T13:11:18;8.65;;;3.55;;
52025;SDS011;38041;40.058;18.328;2022-11-20T13:16:33;11.57;;;2.22;;
52025;SDS011;38041;40.058;18.328;2022-11-20T13:19:04;4.35;;;0.50;;
52025;SDS011;38041;40.058;18.328;2022-11-20T13:21:40;11.18;;;1.30;;
52025;SDS011;38041;40.058;18.328;2022-11-20T13:24:30;15.38;;;5.90;;
52025;SDS011;38041;40.058;18.328;2022-11-20T13:29:31;22.53;;;2.47;;
52025;SDS011;38041;40.058;18.328;2022-11-20T13:34:33;10.52;;;4.57;;
52025;SDS011;38041;40.058;18.328;2022-11-20T13:37:02;17.48;;;5.28;;
52025;SDS011;38041;40.058;18.328;2022-11-20T13:39:33;16.67;;;9.73;;
52025;SDS011;38041;40.058;18.328;2022-11-20T13:44:39;11.40;;;3.13;;
52025;SDS011;38041;40.058;18.328;2022-11-20T13:47:20;12.10;;;3.63;;
52025;SDS011;38041;40.058;18.328;2022-11-20T13:49:48;5.43;;;2.83;;
52025;SDS011;38041;40.058;18.328;2022-11-20T13:55:21;14.77;;;5.20;;
52025;SDS011;38041;40.058;18.328;2022-11-20T14:00:22;5.22;;;1.52;;
52025;SDS011;38041;40.058;18.328;2022-11-20T14:05:37;9.80;;;3.13;;
52025;SDS011;38041;40.058;18.328;2022-11-20T14:08:06;15.93;;;5.68;;
52025;SDS011;38041;40.058;18.328;2022-11-20T14:10:37;13.90;;;5.85;;
52025;SDS011;38041;40.058;18.328;2022-11-20T14:13:10;11.00;;;4.22;;
52025;SDS011;38041;40.058;18.328;2022-11-20T14:15:37;7.30;;;3.90;;
52025;SDS011;38041;40.058;18.328;2022-11-20T14:18:14;16.02;;;6.60;;
52025;SDS011;38041;40.058;18.328;2022-11-20T14:20:42;16.85;;;6.88;;
52025;SDS011;38041;40.058;18.328;2022-11-20T14:23:10;12.60;;;4.32;;
52025;SDS011;38041;40.058;18.328;2022-11-20T14:25:41;18.42;;;9.32;;
52025;SDS011;38041;40.058;18.328;2022-11-20T14:28:10;15.35;;;6.57;;
52025;SDS011;38041;40.058;18.328;2022-11-20T14:30:42;11.60;;;4.43;;
52025;SDS011;38041;40.058;18.328;2022-11-20T14:33:11;13.35;;;5.57;;
52025;SDS011;38041;40.058;18.328;2022-11-20T14:35:49;14.30;;;6.47;;
52025;SDS011;38041;40.058;18.328;2022-11-20T14:38:18;15.10;;;3.75;;
52025;SDS011;38041;40.058;18.328;2022-11-20T14:40:47;11.48;;;2.45;;
52025;SDS011;38041;40.058;18.328;2022-11-20T14:43:25;17.93;;;4.93;;
52025;SDS011;38041;40.058;18.328;2022-11-20T14:45:57;9.80;;;1.97;;
52025;SDS011;38041;40.058;18.328;2022-11-20T14:48:37;6.07;;;1.60;;
52025;SDS011;38041;40.058;18.328;2022-11-20T14:51:05;11.90;;;0.67;;
52025;SDS011;38041;40.058;18.328;2022-11-20T14:53:36;12.13;;;2.00;;
52025;SDS011;38041;40.058;18.328;2022-11-20T14:56:03;10.23;;;2.97;;
52025;SDS011;38041;40.058;18.328;2022-11-20T14:58:32;8.33;;;1.67;;
52025;SDS011;38041;40.058;18.328;2022-11-20T15:01:01;12.70;;;5.07;;
52025;SDS011;38041;40.058;18.328;2022-11-20T15:03:36;100.63;;;52.80;;
52025;SDS011;38041;40.058;18.328;2022-11-20T15:06:04;64.53;;;35.60;;
52025;SDS011;38041;40.058;18.328;2022-11-20T15:08:32;55.53;;;29.10;;
52025;SDS011;38041;40.058;18.328;2022-11-20T15:11:00;24.92;;;12.32;;
52025;SDS011;38041;40.058;18.328;2022-11-20T15:15:56;19.73;;;5.15;;
52025;SDS011;38041;40.058;18.328;2022-11-20T15:18:28;11.23;;;3.97;;
52025;SDS011;38041;40.058;18.328;2022-11-20T15:20:57;14.98;;;6.45;;
52025;SDS011;38041;40.058;18.328;2022-11-20T15:23:26;23.20;;;10.73;;
52025;SDS011;38041;40.058;18.328;2022-11-20T15:25:54;62.22;;;42.00;;
52025;SDS011;38041;40.058;18.328;2022-11-20T15:28:32;48.78;;;26.20;;
52025;SDS011;38041;40.058;18.328;2022-11-20T15:31:00;25.45;;;13.75;;
52025;SDS011;38041;40.058;18.328;2022-11-20T15:33:30;20.80;;;8.20;;
52025;SDS011;38041;40.058;18.328;2022-11-20T15:35:57;16.70;;;8.37;;
52025;SDS011;38041;40.058;18.328;2022-11-20T15:38:25;33.00;;;20.53;;
52025;SDS011;38041;40.058;18.328;2022-11-20T15:40:53;32.13;;;12.33;;
52025;SDS011;38041;40.058;18.328;2022-11-20T15:43:21;26.03;;;9.43;;
52025;SDS011;38041;40.058;18.328;2022-11-20T15:45:49;16.93;;;8.07;;
52025;SDS011;38041;40.058;18.328;2022-11-20T15:49:01;19.63;;;9.20;;
52025;SDS011;38041;40.058;18.328;2022-11-20T15:51:34;26.20;;;10.30;;
52025;SDS011;38041;40.058;18.328;2022-11-20T15:54:36;12.87;;;9.53;;
52025;SDS011;38041;40.058;18.328;2022-11-20T15:56:56;52.17;;;29.83;;
52025;SDS011;38041;40.058;18.328;2022-11-20T15:59:24;45.00;;;27.13;;
52025;SDS011;38041;40.058;18.328;2022-11-20T16:01:52;37.80;;;23.00;;
52025;SDS011;38041;40.058;18.328;2022-11-20T16:04:20;51.77;;;26.97;;
52025;SDS011;38041;40.058;18.328;2022-11-20T16:06:48;64.63;;;37.67;;
52025;SDS011;38041;40.058;18.328;2022-11-20T16:09:15;23.30;;;10.60;;
52025;SDS011;38041;40.058;18.328;2022-11-20T16:11:43;11.03;;;5.97;;
52025;SDS011;38041;40.058;18.328;2022-11-20T16:14:11;23.40;;;6.53;;
52025;SDS011;38041;40.058;18.328;2022-11-20T16:16:57;19.63;;;9.60;;
52025;SDS011;38041;40.058;18.328;2022-11-20T16:19:24;19.33;;;8.63;;
52025;SDS011;38041;40.058;18.328;2022-11-20T16:21:52;25.13;;;11.57;;
52025;SDS011;38041;40.058;18.328;2022-11-20T16:24:22;22.20;;;12.50;;
52025;SDS011;38041;40.058;18.328;2022-11-20T16:26:50;36.17;;;20.63;;
52025;SDS011;38041;40.058;18.328;2022-11-20T16:29:18;34.63;;;18.77;;
52025;SDS011;38041;40.058;18.328;2022-11-20T16:31:45;28.97;;;18.50;;
52025;SDS011;38041;40.058;18.328;2022-11-20T16:34:14;21.37;;;11.80;;